Terminal Aerodrome Forecast
Issued by NWS Cleveland, OH

Home | Current Version | Previous Version | Graphics & Text | Print | Product List | Glossary On
Versions: 1 2 3 4 5 6 7 8 9 10 11 12 13 14 15 16 17 18
000
FTUS41 KCLE 282339
TAFYNG
TAF
KYNG 282339Z 2900/2924 05006KT P6SM VCSH SCT080 OVC120
     FM290200 07006KT 4SM -TSRA SCT035CB BKN050
     FM290600 13009KT 6SM -SHRA VCTS OVC020CB
      TEMPO 2906/2909 4SM -SHRA OVC012
     FM290900 18007KT P6SM OVC010
     FM291200 23007KT P6SM VCSH OVC007
     FM291400 VRB06KT 5SM -SHRA OVC007
     FM291800 02006KT P6SM OVC010=

USA.gov is the U.S. government's official web portal to all federal, state and local government web resources and services.